Weather at Budapest Liszt Ferenc International Airport

Public forecast

Using degrees Celsius for public forecast. Weather courtesy of forecast.io.

Current aviation weather report (METAR) for Budapest Liszt Ferenc International Airport

Retrieved 2022/07/06 04:30 UTC (0 seconds ago):

LHBP 060430Z 31011KT 9999 FEW013 SCT045 18/15 Q1015 NOSIG

Aviation forecast (TAF) for Budapest Liszt Ferenc International Airport

Retrieved 2022-07-06 00:27 UTC (4 hours ago):

TAF LHBP 052315Z 0600/0624 31009KT CAVOK TEMPO 0600/0606 SCT014 BECMG 0606/0609 FEW045 BECMG 0609/0612 33013G23KT CAVOK BECMG 0615/0618 31008KT BECMG 0621/0624 31003KT